Kaduna International Airport

Airport
ICAO code: 
DNKA
IATA Code: 
KAD
Summary
ICAO Region: 
AFI
Territory: 
Location: 
Afaka, Kaduna State
Serving: 
Kaduna
Elevation: 
2073 ft
Coordinates: 
Aerial View: 
10° 41' 44.988" N, 7° 19' 14.988" E
Metar
Observation
DNKA 192300Z 04010KT 7000 NSC 20/07 Q1019
Station
Kaduna
Date/Time
2022-01-19 23:00:00
Wind direction
40°
Wind speed
10 kts
Lowest cloud amount
nil significant cloud
Temperature
20°C
Dew point
7°C
Humidity
42%
QNH
1019 hPa
Weather condition
n/a

Kaduna Airport is an airport serving Kaduna, the capital of Kaduna State in Nigeria. The airport is around 14nm northwest of the city.

Climatology

Tropical savanna climate (Köppen climate classification Aw)

Runways

Designator Length Width Surface Rops
5/23 3000 60 ASP No/No
Airport map: 
Aerial View: 

SKYbrary Partners:

Safety knowledge contributed by: